< < Back
Terminal Aerodrome Forecast


Current Version              Previous Versions:   1  2  3  4  5  6  7  8  9  

Terminal Aerodrome Forecast

667
FTUS44 KMRX 172321
TAFTYS
TAF
KTYS 172321Z 1800/1824 00000KT P6SM SCT035 BKN200
     FM181400 02003KT P6SM OVC100=

Latest METAR

875
SAUS80 KWBC 171500 RRF
MTRTYS
METAR KTYS 181453Z 06006KT 10SM SCT075 BKN150 02/M01 A3020 RMK AO2
SLP232 60000 T00221006 58007


USA.gov is the U.S. government's official web portal to all federal, state and local government web resources and services.